Back to Top

Language: 

My Weather Underground Personal Weather Station Historical Data with Graphs...

Delerius Weather Station Historical Data
Daily Summary for February 20, 2017 Units:  English    Metric   Both
« Previous Day
Next Day »
Daily Weekly Monthly Yearly Custom
  High: Low: Average:
Temperature: 57.5 °F 47.6 °F 52.9 °F
Dew Point: 52.9 °F 43.3 °F 49.7 °F
Humidity: 94 % 82 % 89 %
Wind Speed: 26.0 mph 2.0 mph 11.8 mph
Wind Gust: 33.0 mph - -
Wind:- - West
Pressure: 30.02 in 29.89 in -
Precipitation: 0.00 in    
Historical Graphs
 
 
Tabular Data for February 20, 2017
Time Temperature Dew Point Pressure Wind Wind Speed Wind Gust Humidity Rainfall Rate (Hourly) solar Conditions
00:00 52.0 °F 49.5 °F 30.02 in West 5.0 mph 5.0 mph 91 % 0.00 in 0 W/m2
00:05 52.0 °F 49.5 °F 30.02 in WNW 4.0 mph 9.0 mph 91 % 0.00 in 0 W/m2
00:15 52.4 °F 49.8 °F 30.01 in West 6.0 mph 9.0 mph 91 % 0.00 in 0 W/m2
00:25 52.5 °F 49.9 °F 30.01 in WSW 5.0 mph 6.0 mph 91 % 0.00 in 0 W/m2
00:30 52.6 °F 50.0 °F 30.01 in West 4.0 mph 4.0 mph 91 % 0.00 in 0 W/m2
00:35 52.7 °F 50.1 °F 30.01 in WSW 4.0 mph 7.0 mph 91 % 0.00 in 0 W/m2
00:40 52.9 °F 50.3 °F 30.01 in WSW 5.0 mph 7.0 mph 91 % 0.00 in 0 W/m2
00:45 53.1 °F 50.5 °F 30.01 in North 6.0 mph 12.0 mph 91 % 0.00 in 0 W/m2
00:50 53.3 °F 50.7 °F 30.01 in WNW 9.0 mph 9.0 mph 91 % 0.00 in 0 W/m2
00:55 53.4 °F 50.5 °F 30.01 in West 12.0 mph 19.0 mph 90 % 0.00 in 0 W/m2
01:00 53.4 °F 50.5 °F 30.01 in West 12.0 mph 12.0 mph 90 % 0.00 in 0 W/m2
01:10 53.3 °F 50.4 °F 30.01 in WNW 14.0 mph 14.0 mph 90 % 0.00 in 0 W/m2
01:15 53.3 °F 50.4 °F 30.01 in West 14.0 mph 14.0 mph 90 % 0.00 in 0 W/m2
01:20 53.3 °F 50.4 °F 30.01 in West 13.0 mph 13.0 mph 90 % 0.00 in 0 W/m2
01:30 53.3 °F 50.7 °F 30.01 in West 15.0 mph 20.0 mph 91 % 0.00 in 0 W/m2
01:35 53.3 °F 50.7 °F 30.00 in West 16.0 mph 20.0 mph 91 % 0.00 in 0 W/m2
01:40 53.2 °F 50.6 °F 30.01 in West 15.0 mph 15.0 mph 91 % 0.00 in 0 W/m2
01:45 53.1 °F 50.5 °F 30.01 in West 12.0 mph 15.0 mph 91 % 0.00 in 0 W/m2
01:55 53.0 °F 50.4 °F 30.01 in West 10.0 mph 11.0 mph 91 % 0.00 in 0 W/m2
02:00 53.0 °F 50.4 °F 30.01 in West 11.0 mph 11.0 mph 91 % 0.00 in 0 W/m2
02:05 53.0 °F 50.4 °F 30.01 in WSW 11.0 mph 11.0 mph 91 % 0.00 in 0 W/m2
02:10 53.0 °F 50.4 °F 30.01 in WSW 9.0 mph 9.0 mph 91 % 0.00 in 0 W/m2
02:15 52.9 °F 50.3 °F 30.01 in WSW 8.0 mph 11.0 mph 91 % 0.00 in 0 W/m2
02:20 52.8 °F 50.2 °F 30.01 in WNW 8.0 mph 8.0 mph 91 % 0.00 in 0 W/m2
02:25 52.7 °F 50.1 °F 30.01 in West 6.0 mph 11.0 mph 91 % 0.00 in 0 W/m2
02:35 52.5 °F 49.9 °F 30.01 in WNW 5.0 mph 11.0 mph 91 % 0.00 in 0 W/m2
02:45 52.4 °F 50.1 °F 30.00 in WSW 3.0 mph 11.0 mph 92 % 0.00 in 0 W/m2
02:50 52.4 °F 50.1 °F 30.00 in WSW 2.0 mph 2.0 mph 92 % 0.00 in 0 W/m2
02:55 52.4 °F 50.1 °F 30.00 in WNW 2.0 mph 11.0 mph 92 % 0.00 in 0 W/m2
03:00 52.4 °F 50.1 °F 30.00 in West 2.0 mph 11.0 mph 92 % 0.00 in 0 W/m2
03:05 52.4 °F 50.1 °F 29.99 in West 2.0 mph 11.0 mph 92 % 0.00 in 0 W/m2
03:10 52.5 °F 50.2 °F 29.99 in WNW 3.0 mph 3.0 mph 92 % 0.00 in 0 W/m2
03:20 52.5 °F 50.2 °F 29.99 in West 3.0 mph 11.0 mph 92 % 0.00 in 0 W/m2
03:25 52.5 °F 50.2 °F 29.99 in West 5.0 mph 19.0 mph 92 % 0.00 in 0 W/m2
03:30 52.6 °F 50.3 °F 29.99 in NW 9.0 mph 11.0 mph 92 % 0.00 in 0 W/m2
03:35 52.6 °F 50.3 °F 29.99 in West 11.0 mph 11.0 mph 92 % 0.00 in 0 W/m2
03:40 52.6 °F 50.3 °F 29.99 in West 11.0 mph 11.0 mph 92 % 0.00 in 0 W/m2
03:45 52.5 °F 50.2 °F 29.99 in West 9.0 mph 11.0 mph 92 % 0.00 in 0 W/m2
03:50 52.4 °F 50.4 °F 29.99 in West 10.0 mph 19.0 mph 93 % 0.00 in 0 W/m2
04:00 52.2 °F 50.5 °F 29.98 in WSW 14.0 mph 23.0 mph 94 % 0.00 in 0 W/m2
04:05 52.1 °F 50.4 °F 29.97 in West 16.0 mph 23.0 mph 94 % 0.00 in 0 W/m2
04:10 52.1 °F 50.4 °F 29.97 in West 18.0 mph 18.0 mph 94 % 0.00 in 0 W/m2
04:15 52.1 °F 50.4 °F 29.98 in West 17.0 mph 18.0 mph 94 % 0.00 in 0 W/m2
04:25 52.2 °F 50.5 °F 29.98 in NW 17.0 mph 24.0 mph 94 % 0.00 in 0 W/m2
04:30 52.1 °F 50.4 °F 29.97 in West 16.0 mph 22.0 mph 94 % 0.00 in 0 W/m2
04:40 52.0 °F 50.3 °F 29.97 in West 18.0 mph 18.0 mph 94 % 0.00 in 0 W/m2
04:45 51.9 °F 50.2 °F 29.97 in West 18.0 mph 26.0 mph 94 % 0.00 in 0 W/m2
04:50 52.0 °F 50.3 °F 29.96 in WNW 18.0 mph 24.0 mph 94 % 0.00 in 0 W/m2
04:55 52.1 °F 50.1 °F 29.96 in WNW 20.0 mph 24.0 mph 93 % 0.00 in 0 W/m2
05:00 52.3 °F 50.3 °F 29.97 in NW 21.0 mph 21.0 mph 93 % 0.00 in 0 W/m2
05:05 52.4 °F 50.4 °F 29.97 in WNW 20.0 mph 21.0 mph 93 % 0.00 in 0 W/m2
05:10 52.5 °F 50.5 °F 29.97 in West 19.0 mph 19.0 mph 93 % 0.00 in 0 W/m2
05:15 52.5 °F 50.5 °F 29.97 in West 18.0 mph 19.0 mph 93 % 0.00 in 0 W/m2
05:25 52.4 °F 50.1 °F 29.97 in NNW 16.0 mph 16.0 mph 92 % 0.00 in 0 W/m2
05:30 52.4 °F 50.1 °F 29.97 in West 16.0 mph 18.0 mph 92 % 0.00 in 0 W/m2
05:35 52.5 °F 50.2 °F 29.97 in WNW 15.0 mph 18.0 mph 92 % 0.00 in 0 W/m2
05:40 52.6 °F 50.0 °F 29.97 in West 14.0 mph 14.0 mph 91 % 0.00 in 0 W/m2
05:45 52.6 °F 50.0 °F 29.97 in West 13.0 mph 18.0 mph 91 % 0.00 in 0 W/m2
05:55 52.7 °F 50.1 °F 29.96 in WNW 13.0 mph 15.0 mph 91 % 0.00 in 0 W/m2
06:05 52.6 °F 50.0 °F 29.96 in WNW 15.0 mph 18.0 mph 91 % 0.00 in 0 W/m2
06:10 52.6 °F 50.0 °F 29.96 in WNW 15.0 mph 15.0 mph 91 % 0.00 in 0 W/m2
06:15 52.5 °F 49.9 °F 29.97 in WNW 15.0 mph 15.0 mph 91 % 0.00 in 0 W/m2
06:20 52.4 °F 49.8 °F 29.97 in NW 15.0 mph 20.0 mph 91 % 0.00 in 0 W/m2
06:25 52.4 °F 49.8 °F 29.96 in West 15.0 mph 20.0 mph 91 % 0.00 in 0 W/m2
06:30 52.2 °F 49.9 °F 29.97 in West 13.0 mph 13.0 mph 92 % 0.00 in 0 W/m2
06:40 52.2 °F 49.9 °F 29.97 in West 14.0 mph 14.0 mph 92 % 0.00 in 0 W/m2
06:45 52.1 °F 49.8 °F 29.97 in WNW 13.0 mph 14.0 mph 92 % 0.00 in 0 W/m2
06:55 52.0 °F 49.7 °F 29.97 in West 9.0 mph 11.0 mph 92 % 0.00 in 0 W/m2
07:00 52.0 °F 50.0 °F 29.97 in West 10.0 mph 10.0 mph 93 % 0.00 in 0 W/m2
07:05 51.9 °F 49.9 °F 29.97 in West 7.0 mph 11.0 mph 93 % 0.00 in 0 W/m2
07:10 52.0 °F 50.0 °F 29.97 in WSW 6.0 mph 6.0 mph 93 % 0.00 in 0 W/m2
07:15 52.0 °F 50.0 °F 29.96 in WSW 6.0 mph 11.0 mph 93 % 0.00 in 0 W/m2
07:20 52.0 °F 50.0 °F 29.96 in West 5.0 mph 5.0 mph 93 % 0.00 in 0 W/m2
07:25 52.1 °F 49.8 °F 29.96 in WSW 5.0 mph 6.0 mph 92 % 0.00 in 0 W/m2
07:35 52.2 °F 49.9 °F 29.95 in West 6.0 mph 11.0 mph 92 % 0.00 in 5 W/m2
07:40 52.3 °F 50.0 °F 29.95 in West 6.0 mph 6.0 mph 92 % 0.00 in 9 W/m2
07:45 52.3 °F 50.0 °F 29.96 in WSW 8.0 mph 9.0 mph 92 % 0.00 in 9 W/m2
07:50 52.3 °F 50.0 °F 29.96 in WSW 8.0 mph 8.0 mph 92 % 0.00 in 9 W/m2
07:55 52.2 °F 49.9 °F 29.96 in West 7.0 mph 11.0 mph 92 % 0.00 in 12 W/m2
08:00 52.2 °F 49.9 °F 29.96 in West 7.0 mph 7.0 mph 92 % 0.00 in 14 W/m2
08:05 52.2 °F 49.9 °F 29.96 in WNW 7.0 mph 11.0 mph 92 % 0.00 in 18 W/m2
08:10 52.2 °F 49.9 °F 29.96 in WNW 7.0 mph 11.0 mph 92 % 0.00 in 19 W/m2
08:20 52.3 °F 50.0 °F 29.96 in West 10.0 mph 10.0 mph 92 % 0.00 in 19 W/m2
08:25 52.4 °F 49.8 °F 29.95 in WSW 11.0 mph 11.0 mph 91 % 0.00 in 21 W/m2
08:30 52.4 °F 49.8 °F 29.95 in West 11.0 mph 11.0 mph 91 % 0.00 in 14 W/m2
08:35 52.3 °F 49.8 °F 29.96 in WSW 9.0 mph 13.0 mph 91 % 0.00 in 12 W/m2
08:40 52.3 °F 49.8 °F 29.95 in WSW 8.0 mph 11.0 mph 91 % 0.00 in 16 W/m2
08:45 52.4 °F 49.8 °F 29.95 in West 10.0 mph 11.0 mph 91 % 0.00 in 12 W/m2
08:55 52.4 °F 49.8 °F 29.94 in West 9.0 mph 15.0 mph 91 % 0.00 in 25 W/m2
09:05 52.8 °F 50.5 °F 29.92 in West 11.0 mph 11.0 mph 92 % 0.00 in 46 W/m2
09:10 53.0 °F 50.7 °F 29.92 in West 11.0 mph 16.0 mph 92 % 0.00 in 47 W/m2
09:15 53.3 °F 51.0 °F 29.92 in WNW 12.0 mph 30.0 mph 92 % 0.00 in 58 W/m2
09:20 53.5 °F 51.2 °F 29.92 in NW 15.0 mph 15.0 mph 92 % 0.00 in 63 W/m2
09:25 53.7 °F 51.4 °F 29.92 in WNW 18.0 mph 18.0 mph 92 % 0.00 in 65 W/m2
09:35 53.8 °F 51.5 °F 29.91 in NW 15.0 mph 22.0 mph 92 % 0.00 in 84 W/m2
09:40 54.0 °F 51.7 °F 29.90 in West 16.0 mph 21.0 mph 92 % 0.00 in 88 W/m2
09:45 54.2 °F 51.9 °F 29.90 in NW 17.0 mph 21.0 mph 92 % 0.00 in 98 W/m2
09:55 54.8 °F 52.2 °F 29.89 in WNW 18.0 mph 23.0 mph 91 % 0.00 in 137 W/m2
10:00 55.2 °F 52.3 °F 29.89 in WNW 20.0 mph 28.0 mph 90 % 0.00 in 144 W/m2
10:05 55.8 °F 52.6 °F 29.89 in West 22.0 mph 28.0 mph 89 % 0.00 in 158 W/m2
10:10 56.2 °F 52.4 °F 29.89 in WNW 23.0 mph 30.0 mph 87 % 0.00 in 171 W/m2
10:15 56.5 °F 52.4 °F 29.89 in WSW 24.0 mph 31.0 mph 86 % 0.00 in 148 W/m2
10:20 56.7 °F 52.2 °F 29.89 in WNW 24.0 mph 24.0 mph 85 % 0.00 in 137 W/m2
10:25 56.7 °F 52.2 °F 29.89 in WNW 22.0 mph 26.0 mph 85 % 0.00 in 114 W/m2
10:30 56.7 °F 52.2 °F 29.90 in West 21.0 mph 21.0 mph 85 % 0.00 in 100 W/m2
10:40 57.0 °F 52.2 °F 29.89 in West 23.0 mph 25.0 mph 84 % 0.00 in 100 W/m2
10:45 57.2 °F 52.4 °F 29.90 in West 24.0 mph 29.0 mph 84 % 0.00 in 98 W/m2
10:50 57.3 °F 52.5 °F 29.89 in NW 25.0 mph 28.0 mph 84 % 0.00 in 105 W/m2
10:55 57.3 °F 52.8 °F 29.89 in WNW 25.0 mph 28.0 mph 85 % 0.00 in 116 W/m2
11:00 57.3 °F 52.8 °F 29.89 in West 22.0 mph 24.0 mph 85 % 0.00 in 105 W/m2
11:05 57.3 °F 52.5 °F 29.89 in WNW 22.0 mph 28.0 mph 84 % 0.00 in 88 W/m2
11:15 57.4 °F 52.3 °F 29.89 in West 26.0 mph 26.0 mph 83 % 0.00 in 76 W/m2
11:20 57.4 °F 52.3 °F 29.89 in WNW 25.0 mph 31.0 mph 83 % 0.00 in 67 W/m2
11:25 57.4 °F 52.3 °F 29.90 in WNW 25.0 mph 31.0 mph 83 % 0.00 in 70 W/m2
11:30 57.4 °F 52.3 °F 29.91 in West 24.0 mph 33.0 mph 83 % 0.00 in 83 W/m2
11:35 57.4 °F 51.9 °F 29.91 in WNW 24.0 mph 33.0 mph 82 % 0.00 in 93 W/m2
11:40 57.4 °F 51.9 °F 29.91 in WNW 25.0 mph 25.0 mph 82 % 0.00 in 104 W/m2
11:50 57.5 °F 52.4 °F 29.92 in West 24.0 mph 24.0 mph 83 % 0.00 in 146 W/m2
11:55 57.4 °F 52.3 °F 29.93 in West 23.0 mph 28.0 mph 83 % 0.00 in 176 W/m2
12:05 57.4 °F 52.6 °F 29.94 in WNW 18.0 mph 21.0 mph 84 % 0.00 in 186 W/m2
12:10 57.4 °F 52.9 °F 29.94 in West 19.0 mph 19.0 mph 85 % 0.00 in 171 W/m2
12:15 57.2 °F 52.7 °F 29.94 in West 19.0 mph 22.0 mph 85 % 0.00 in 156 W/m2
12:20 57.2 °F 52.7 °F 29.94 in WNW 18.0 mph 21.0 mph 85 % 0.00 in 111 W/m2
12:25 57.0 °F 52.5 °F 29.94 in West 17.0 mph 21.0 mph 85 % 0.00 in 130 W/m2
12:30 56.8 °F 52.7 °F 29.94 in West 17.0 mph 17.0 mph 86 % 0.00 in 104 W/m2
12:35 56.5 °F 52.7 °F 29.94 in West 15.0 mph 17.0 mph 87 % 0.00 in 86 W/m2
12:40 56.3 °F 52.5 °F 29.94 in West 13.0 mph 13.0 mph 87 % 0.00 in 139 W/m2
12:45 56.2 °F 52.7 °F 29.94 in NW 13.0 mph 13.0 mph 88 % 0.00 in 148 W/m2
12:55 56.2 °F 52.4 °F 29.94 in WNW 12.0 mph 13.0 mph 87 % 0.00 in 100 W/m2
13:05 56.0 °F 52.2 °F 29.94 in West 12.0 mph 15.0 mph 87 % 0.00 in 69 W/m2
13:10 55.8 °F 52.3 °F 29.94 in West 13.0 mph 18.0 mph 88 % 0.00 in 60 W/m2
13:15 55.6 °F 52.1 °F 29.94 in WNW 12.0 mph 18.0 mph 88 % 0.00 in 51 W/m2
13:20 55.4 °F 51.9 °F 29.93 in WNW 12.0 mph 15.0 mph 88 % 0.00 in 51 W/m2
13:30 55.4 °F 51.9 °F 29.93 in WSW 14.0 mph 14.0 mph 88 % 0.00 in 58 W/m2
13:35 55.3 °F 51.8 °F 29.93 in WSW 13.0 mph 14.0 mph 88 % 0.00 in 62 W/m2
13:45 55.3 °F 51.8 °F 29.93 in WSW 14.0 mph 15.0 mph 88 % 0.00 in 111 W/m2
13:50 55.4 °F 51.9 °F 29.93 in WNW 13.0 mph 13.0 mph 88 % 0.00 in 105 W/m2
13:55 55.5 °F 52.0 °F 29.93 in West 10.0 mph 13.0 mph 88 % 0.00 in 90 W/m2
14:00 55.4 °F 51.9 °F 29.93 in WSW 11.0 mph 13.0 mph 88 % 0.00 in 91 W/m2
14:10 55.2 °F 51.7 °F 29.93 in West 15.0 mph 18.0 mph 88 % 0.00 in 114 W/m2
14:15 55.1 °F 51.6 °F 29.93 in WSW 15.0 mph 18.0 mph 88 % 0.00 in 144 W/m2
14:20 55.2 °F 52.0 °F 29.93 in WNW 15.0 mph 15.0 mph 89 % 0.00 in 190 W/m2
14:25 55.2 °F 52.0 °F 29.93 in West 14.0 mph 15.0 mph 89 % 0.00 in 209 W/m2
14:30 55.3 °F 52.4 °F 29.93 in West 13.0 mph 13.0 mph 90 % 0.00 in 221 W/m2
14:35 55.5 °F 52.6 °F 29.93 in West 10.0 mph 13.0 mph 90 % 0.00 in 264 W/m2
14:40 55.9 °F 52.7 °F 29.93 in WSW 8.0 mph 14.0 mph 89 % 0.00 in 148 W/m2
14:45 55.9 °F 52.1 °F 29.93 in West 9.0 mph 14.0 mph 87 % 0.00 in 93 W/m2
14:55 55.8 °F 51.7 °F 29.93 in WNW 10.0 mph 11.0 mph 86 % 0.00 in 178 W/m2
15:00 56.0 °F 51.9 °F 29.93 in West 12.0 mph 12.0 mph 86 % 0.00 in 216 W/m2
15:05 56.1 °F 51.7 °F 29.93 in West 14.0 mph 19.0 mph 85 % 0.00 in 218 W/m2
15:10 56.3 °F 51.8 °F 29.93 in WNW 15.0 mph 15.0 mph 85 % 0.00 in 302 W/m2
15:15 56.4 °F 51.9 °F 29.93 in West 13.0 mph 15.0 mph 85 % 0.00 in 223 W/m2
15:20 56.3 °F 51.5 °F 29.93 in West 12.0 mph 12.0 mph 84 % 0.00 in 91 W/m2
15:25 56.1 °F 51.3 °F 29.93 in West 12.0 mph 12.0 mph 84 % 0.00 in 88 W/m2
15:30 55.9 °F 51.1 °F 29.93 in NW 12.0 mph 12.0 mph 84 % 0.00 in 62 W/m2
15:35 55.6 °F 51.2 °F 29.93 in WNW 14.0 mph 15.0 mph 85 % 0.00 in 62 W/m2
15:45 55.0 °F 50.9 °F 29.93 in West 15.0 mph 16.0 mph 86 % 0.00 in 58 W/m2
15:50 54.8 °F 51.0 °F 29.93 in West 15.0 mph 15.0 mph 87 % 0.00 in 81 W/m2
16:00 54.6 °F 50.8 °F 29.92 in West 13.0 mph 13.0 mph 87 % 0.00 in 62 W/m2
16:05 54.6 °F 50.8 °F 29.93 in West 13.0 mph 13.0 mph 87 % 0.00 in 53 W/m2
16:10 54.7 °F 50.9 °F 29.93 in West 12.0 mph 12.0 mph 87 % 0.00 in 44 W/m2
16:15 54.7 °F 50.6 °F 29.93 in WNW 11.0 mph 12.0 mph 86 % 0.00 in 28 W/m2
16:25 54.5 °F 50.4 °F 29.94 in WNW 13.0 mph 15.0 mph 86 % 0.00 in 19 W/m2
16:30 54.4 °F 50.6 °F 29.94 in WNW 12.0 mph 18.0 mph 87 % 0.00 in 23 W/m2
16:35 54.1 °F 50.9 °F 29.94 in West 12.0 mph 18.0 mph 89 % 0.00 in 26 W/m2
16:40 53.8 °F 50.6 °F 29.94 in West 11.0 mph 12.0 mph 89 % 0.00 in 26 W/m2
16:45 53.5 °F 50.6 °F 29.93 in West 11.0 mph 12.0 mph 90 % 0.00 in 30 W/m2
16:55 53.3 °F 50.1 °F 29.94 in WNW 12.0 mph 13.0 mph 89 % 0.00 in 26 W/m2
17:00 53.3 °F 50.1 °F 29.94 in WNW 11.0 mph 12.0 mph 89 % 0.00 in 18 W/m2
17:05 53.2 °F 50.0 °F 29.94 in WNW 11.0 mph 13.0 mph 89 % 0.00 in 12 W/m2
17:10 53.1 °F 50.2 °F 29.95 in WNW 11.0 mph 11.0 mph 90 % 0.00 in 7 W/m2
17:15 53.0 °F 50.1 °F 29.95 in WNW 12.0 mph 12.0 mph 90 % 0.00 in 5 W/m2
17:25 52.7 °F 49.8 °F 29.95 in West 11.0 mph 12.0 mph 90 % 0.00 in 0 W/m2
17:30 52.6 °F 49.8 °F 29.95 in West 11.0 mph 21.0 mph 90 % 0.00 in 0 W/m2
17:35 52.5 °F 49.7 °F 29.95 in West 11.0 mph 21.0 mph 90 % 0.00 in 0 W/m2
17:40 52.5 °F 49.7 °F 29.95 in NW 10.0 mph 10.0 mph 90 % 0.00 in 0 W/m2
17:45 52.4 °F 49.6 °F 29.95 in NW 9.0 mph 11.0 mph 90 % 0.00 in 0 W/m2
17:50 52.4 °F 49.6 °F 29.96 in WNW 10.0 mph 13.0 mph 90 % 0.00 in 0 W/m2
17:55 52.3 °F 49.5 °F 29.96 in WNW 9.0 mph 13.0 mph 90 % 0.00 in 0 W/m2
18:00 52.3 °F 49.5 °F 29.95 in WNW 8.0 mph 11.0 mph 90 % 0.00 in 0 W/m2
18:05 52.2 °F 49.1 °F 29.96 in WNW 8.0 mph 11.0 mph 89 % 0.00 in 0 W/m2
18:15 52.0 °F 48.9 °F 29.97 in West 6.0 mph 11.0 mph 89 % 0.00 in 0 W/m2
18:20 52.0 °F 48.9 °F 29.97 in NW 5.0 mph 11.0 mph 89 % 0.00 in 0 W/m2
18:25 51.9 °F 48.8 °F 29.97 in WNW 5.0 mph 11.0 mph 89 % 0.00 in 0 W/m2
18:30 51.8 °F 48.7 °F 29.97 in WNW 6.0 mph 11.0 mph 89 % 0.00 in 0 W/m2
18:40 51.6 °F 48.5 °F 29.97 in West 7.0 mph 7.0 mph 89 % 0.00 in 0 W/m2
18:45 51.5 °F 48.4 °F 29.97 in WNW 6.0 mph 11.0 mph 89 % 0.00 in 0 W/m2
18:50 51.3 °F 47.9 °F 29.97 in WNW 7.0 mph 7.0 mph 88 % 0.00 in 0 W/m2
19:00 51.1 °F 47.7 °F 29.97 in West 8.0 mph 8.0 mph 88 % 0.00 in 0 W/m2
19:05 51.0 °F 47.6 °F 29.97 in NW 8.0 mph 11.0 mph 88 % 0.00 in 0 W/m2
19:10 50.9 °F 47.2 °F 29.97 in WNW 8.0 mph 8.0 mph 87 % 0.00 in 0 W/m2
19:15 50.8 °F 47.1 °F 29.96 in WNW 8.0 mph 10.0 mph 87 % 0.00 in 0 W/m2
19:20 50.6 °F 46.9 °F 29.97 in WNW 7.0 mph 11.0 mph 87 % 0.00 in 0 W/m2
19:25 50.5 °F 46.8 °F 29.97 in WNW 6.0 mph 11.0 mph 87 % 0.00 in 0 W/m2
19:30 50.4 °F 46.7 °F 29.97 in West 6.0 mph 6.0 mph 87 % 0.00 in 0 W/m2
19:40 50.3 °F 46.6 °F 29.97 in WNW 7.0 mph 11.0 mph 87 % 0.00 in 0 W/m2
19:50 50.2 °F 46.5 °F 29.97 in West 7.0 mph 11.0 mph 87 % 0.00 in 0 W/m2
19:55 50.1 °F 46.1 °F 29.97 in WNW 7.0 mph 11.0 mph 86 % 0.00 in 0 W/m2
20:00 50.0 °F 46.0 °F 29.97 in WNW 7.0 mph 7.0 mph 86 % 0.00 in 0 W/m2
20:05 50.0 °F 46.3 °F 29.98 in WNW 7.0 mph 11.0 mph 87 % 0.00 in 0 W/m2
20:10 50.0 °F 46.3 °F 29.98 in West 8.0 mph 11.0 mph 87 % 0.00 in 0 W/m2
20:15 49.9 °F 46.2 °F 29.97 in WNW 8.0 mph 11.0 mph 87 % 0.00 in 0 W/m2
20:20 49.9 °F 46.2 °F 29.97 in West 6.0 mph 6.0 mph 87 % 0.00 in 0 W/m2
20:25 49.8 °F 46.1 °F 29.98 in NW 5.0 mph 12.0 mph 87 % 0.00 in 0 W/m2
20:35 49.8 °F 46.1 °F 29.98 in West 8.0 mph 11.0 mph 87 % 0.00 in 0 W/m2
20:40 49.8 °F 46.1 °F 29.98 in WNW 8.0 mph 11.0 mph 87 % 0.00 in 0 W/m2
20:45 49.8 °F 46.1 °F 29.97 in West 8.0 mph 11.0 mph 87 % 0.00 in 0 W/m2
20:55 49.7 °F 46.0 °F 29.97 in West 9.0 mph 10.0 mph 87 % 0.00 in 0 W/m2
21:00 49.7 °F 46.0 °F 29.96 in West 9.0 mph 11.0 mph 87 % 0.00 in 0 W/m2
21:05 49.7 °F 46.3 °F 29.97 in West 9.0 mph 11.0 mph 88 % 0.00 in 0 W/m2
21:10 49.7 °F 46.3 °F 29.96 in West 10.0 mph 10.0 mph 88 % 0.00 in 0 W/m2
21:20 49.5 °F 46.1 °F 29.97 in WNW 7.0 mph 11.0 mph 88 % 0.00 in 0 W/m2
21:25 49.4 °F 46.0 °F 29.96 in WNW 8.0 mph 11.0 mph 88 % 0.00 in 0 W/m2
21:30 49.4 °F 46.0 °F 29.97 in WNW 8.0 mph 8.0 mph 88 % 0.00 in 0 W/m2
21:35 49.3 °F 45.9 °F 29.97 in WSW 8.0 mph 10.0 mph 88 % 0.00 in 0 W/m2
21:40 49.2 °F 45.8 °F 29.97 in WNW 7.0 mph 11.0 mph 88 % 0.00 in 0 W/m2
21:45 49.2 °F 45.8 °F 29.97 in WNW 9.0 mph 11.0 mph 88 % 0.00 in 0 W/m2
21:50 49.2 °F 45.8 °F 29.97 in West 10.0 mph 11.0 mph 88 % 0.00 in 0 W/m2
22:00 49.3 °F 45.6 °F 29.97 in WNW 10.0 mph 10.0 mph 87 % 0.00 in 0 W/m2
22:10 49.4 °F 45.7 °F 29.96 in WSW 9.0 mph 11.0 mph 87 % 0.00 in 0 W/m2
22:15 49.4 °F 45.7 °F 29.96 in West 9.0 mph 11.0 mph 87 % 0.00 in 0 W/m2
22:20 49.3 °F 45.3 °F 29.96 in WSW 9.0 mph 15.0 mph 86 % 0.00 in 0 W/m2
22:25 49.2 °F 45.2 °F 29.97 in West 10.0 mph 15.0 mph 86 % 0.00 in 0 W/m2
22:30 49.2 °F 45.2 °F 29.97 in West 12.0 mph 12.0 mph 86 % 0.00 in 0 W/m2
22:35 49.2 °F 45.2 °F 29.96 in West 10.0 mph 12.0 mph 86 % 0.00 in 0 W/m2
22:40 49.2 °F 45.2 °F 29.96 in WSW 9.0 mph 9.0 mph 86 % 0.00 in 0 W/m2
22:50 49.2 °F 45.5 °F 29.96 in WNW 8.0 mph 11.0 mph 87 % 0.00 in 0 W/m2
22:55 49.1 °F 45.4 °F 29.97 in WSW 9.0 mph 12.0 mph 87 % 0.00 in 0 W/m2
23:00 49.2 °F 45.2 °F 29.97 in West 10.0 mph 10.0 mph 86 % 0.00 in 0 W/m2
23:05 49.2 °F 44.9 °F 29.97 in West 10.0 mph 11.0 mph 85 % 0.00 in 0 W/m2
23:10 49.1 °F 44.8 °F 29.97 in West 10.0 mph 13.0 mph 85 % 0.00 in 0 W/m2
23:15 48.9 °F 44.6 °F 29.96 in West 11.0 mph 13.0 mph 85 % 0.00 in 0 W/m2
23:20 48.8 °F 44.5 °F 29.96 in West 10.0 mph 10.0 mph 85 % 0.00 in 0 W/m2
23:25 48.7 °F 44.4 °F 29.96 in West 8.0 mph 11.0 mph 85 % 0.00 in 0 W/m2
23:35 48.4 °F 44.1 °F 29.97 in West 9.0 mph 11.0 mph 85 % 0.00 in 0 W/m2
23:40 48.2 °F 43.9 °F 29.97 in West 8.0 mph 8.0 mph 85 % 0.00 in 0 W/m2
23:45 48.0 °F 43.7 °F 29.97 in WNW 8.0 mph 11.0 mph 85 % 0.00 in 0 W/m2
23:50 47.8 °F 43.5 °F 29.97 in West 8.0 mph 8.0 mph 85 % 0.00 in 0 W/m2
23:55 47.6 °F 43.3 °F 29.97 in WSW 8.0 mph 10.0 mph 85 % 0.00 in 0 W/m2
Delerius-Weather
Compliments of Weather Underground - 2 mb

Data updates at regular intervals.